Time;durP1;ratioP1;P1;durP2;ratioP2;P2;SDS_P1;SDS_P2;PMS_P1;PMS_P2;Temp;Humidity;BMP_temperature;BMP_pressure;BME280_temperature;BME280_humidity;BME280_pressure;Samples;Min_cycle;Max_cycle;Signal;HPM_P1;HPM_P2
2023/04/01 00:02:09;;;;;;;5.23;1.00;;;;;;;;;;6149111;23;20023;-42
2023/04/01 00:04:36;;;;;;;6.53;2.10;;;;;;;;;;6157543;23;20341;-43
2023/04/01 00:07:06;;;;;;;6.95;1.88;;;;;;;;;;6154043;23;20025;-42
2023/04/01 00:09:34;;;;;;;5.93;1.33;;;;;;;;;;6161973;23;20020;-42
2023/04/01 00:12:02;;;;;;;5.22;1.58;;;;;;;;;;6154215;23;20360;-43
2023/04/01 00:14:30;;;;;;;8.20;1.80;;;;;;;;;;6160658;23;20096;-42
2023/04/01 00:16:57;;;;;;;4.43;0.95;;;;;;;;;;6149787;23;20020;-43
2023/04/01 00:19:25;;;;;;;5.68;1.33;;;;;;;;;;6159283;23;20009;-42
2023/04/01 00:21:53;;;;;;;5.60;1.15;;;;;;;;;;6151753;23;20092;-42
2023/04/01 00:24:22;;;;;;;4.50;0.93;;;;;;;;;;6158952;23;20024;-45
2023/04/01 00:26:50;;;;;;;7.53;1.40;;;;;;;;;;6152165;23;20021;-43
2023/04/01 00:29:17;;;;;;;5.55;1.50;;;;;;;;;;6154988;23;20494;-43
2023/04/01 00:31:45;;;;;;;4.80;1.25;;;;;;;;;;6151456;23;20036;-43
2023/04/01 00:34:13;;;;;;;5.93;1.40;;;;;;;;;;6161172;23;20013;-41
2023/04/01 00:36:42;;;;;;;5.90;1.10;;;;;;;;;;6155037;23;20531;-44
2023/04/01 00:39:10;;;;;;;5.97;1.60;;;;;;;;;;6163348;23;20017;-43
2023/04/01 00:41:38;;;;;;;5.07;1.40;;;;;;;;;;6148842;23;20036;-42
2023/04/01 00:44:16;;;;;;;5.53;1.30;;;;;;;;;;6162994;23;20326;-42
2023/04/01 00:46:44;;;;;;;5.40;1.27;;;;;;;;;;6156592;23;20586;-42
2023/04/01 00:49:11;;;;;;;6.22;1.50;;;;;;;;;;6160782;23;20455;-42
2023/04/01 00:51:40;;;;;;;7.10;2.00;;;;;;;;;;6128775;23;20043;-43
2023/04/01 00:54:08;;;;;;;8.05;2.00;;;;;;;;;;6161265;23;20048;-42
2023/04/01 00:56:37;;;;;;;6.80;2.33;;;;;;;;;;6159185;23;20489;-42
2023/04/01 00:59:08;;;;;;;6.70;2.20;;;;;;;;;;6152531;23;20017;-46
2023/04/01 01:01:36;;;;;;;10.93;2.03;;;;;;;;;;6163219;23;20398;-43
2023/04/01 01:04:03;;;;;;;8.97;2.53;;;;;;;;;;6126782;23;20321;-43
2023/04/01 01:06:39;;;;;;;9.25;2.45;;;;;;;;;;6162582;23;20108;-42
2023/04/01 01:09:09;;;;;;;7.55;2.58;;;;;;;;;;6158137;23;20041;-45
2023/04/01 01:11:40;;;;;;;8.45;2.63;;;;;;;;;;6149411;23;20024;-43
2023/04/01 01:14:22;;;;;;;8.82;2.17;;;;;;;;;;6160571;23;20088;-42
2023/04/01 01:16:56;;;;;;;8.00;2.80;;;;;;;;;;6160220;23;20076;-45
2023/04/01 01:19:43;;;;;;;6.45;2.08;;;;;;;;;;6128431;23;20775;-41
2023/04/01 01:22:20;;;;;;;10.00;3.25;;;;;;;;;;6153174;23;20103;-44
2023/04/01 01:24:57;;;;;;;10.75;2.55;;;;;;;;;;6157964;23;20033;-42
2023/04/01 01:27:26;;;;;;;6.07;1.92;;;;;;;;;;6158550;23;20017;-43
2023/04/01 01:30:05;;;;;;;10.53;2.90;;;;;;;;;;6162108;23;20049;-43
2023/04/01 01:32:48;;;;;;;7.65;2.83;;;;;;;;;;6154275;23;20009;-43
2023/04/01 01:35:21;;;;;;;9.25;2.95;;;;;;;;;;6153237;23;20040;-43
2023/04/01 01:37:51;;;;;;;9.38;3.30;;;;;;;;;;6162270;23;20071;-42
2023/04/01 01:40:19;;;;;;;9.48;2.83;;;;;;;;;;6154971;23;20032;-41
2023/04/01 01:42:48;;;;;;;10.20;3.07;;;;;;;;;;6162251;23;20025;-42
2023/04/01 01:45:19;;;;;;;8.68;3.05;;;;;;;;;;6158388;23;20017;-42
2023/04/01 01:47:48;;;;;;;7.60;2.47;;;;;;;;;;6154258;23;20016;-43
2023/04/01 01:50:16;;;;;;;7.95;2.78;;;;;;;;;;6161374;23;20013;-43
2023/04/01 01:52:45;;;;;;;8.95;3.53;;;;;;;;;;6157625;23;20470;-42
2023/04/01 01:55:28;;;;;;;7.10;2.60;;;;;;;;;;6156721;23;20013;-41
2023/04/01 01:57:58;;;;;;;8.43;3.45;;;;;;;;;;6159014;23;20403;-42
2023/04/01 02:00:26;;;;;;;10.50;3.05;;;;;;;;;;6157599;23;20037;-43
2023/04/01 02:02:54;;;;;;;12.75;3.47;;;;;;;;;;6161707;23;20013;-42
2023/04/01 02:05:24;;;;;;;8.13;2.40;;;;;;;;;;6157589;23;20107;-42
2023/04/01 02:07:57;;;;;;;9.30;3.30;;;;;;;;;;6153119;23;20080;-42
2023/04/01 02:10:26;;;;;;;9.80;3.13;;;;;;;;;;6159390;23;20036;-43
2023/04/01 02:12:54;;;;;;;9.07;2.70;;;;;;;;;;6162425;23;20503;-41
2023/04/01 02:15:22;;;;;;;8.95;2.83;;;;;;;;;;6158497;23;20092;-42
2023/04/01 02:17:50;;;;;;;10.38;2.95;;;;;;;;;;6155591;23;20037;-42
2023/04/01 02:20:20;;;;;;;8.73;3.00;;;;;;;;;;6163793;23;20025;-42
2023/04/01 02:22:49;;;;;;;9.52;2.83;;;;;;;;;;6153942;23;20528;-44
2023/04/01 02:25:21;;;;;;;10.43;3.17;;;;;;;;;;6154536;23;20061;-42
2023/04/01 02:27:49;;;;;;;8.95;2.70;;;;;;;;;;6156277;23;20020;-42
2023/04/01 02:30:18;;;;;;;9.00;3.00;;;;;;;;;;6134524;23;20041;-42
2023/04/01 02:32:45;;;;;;;10.73;2.83;;;;;;;;;;6155749;23;20028;-43
2023/04/01 02:35:15;;;;;;;10.48;2.63;;;;;;;;;;6156320;23;20013;-42
2023/04/01 02:37:43;;;;;;;7.90;2.45;;;;;;;;;;6161173;23;20031;-43
2023/04/01 02:40:12;;;;;;;9.52;2.33;;;;;;;;;;6145862;23;20037;-43
2023/04/01 02:42:41;;;;;;;7.72;2.75;;;;;;;;;;6129877;23;20017;-42
2023/04/01 02:45:10;;;;;;;10.70;3.13;;;;;;;;;;6145429;23;20021;-42
2023/04/01 02:47:37;;;;;;;9.07;2.42;;;;;;;;;;6134119;23;20467;-41
2023/04/01 02:50:05;;;;;;;8.13;2.88;;;;;;;;;;6135100;23;20424;-42
2023/04/01 02:52:33;;;;;;;8.07;2.67;;;;;;;;;;6153344;23;20017;-42
2023/04/01 02:55:01;;;;;;;8.63;2.45;;;;;;;;;;6161554;23;20064;-43
2023/04/01 02:57:28;;;;;;;10.30;2.93;;;;;;;;;;6130758;23;20325;-43
2023/04/01 02:59:58;;;;;;;7.90;1.95;;;;;;;;;;6160646;23;20024;-46
2023/04/01 03:02:25;;;;;;;11.85;2.60;;;;;;;;;;6158983;23;20017;-42
2023/04/01 03:04:53;;;;;;;7.93;2.13;;;;;;;;;;6156046;23;20451;-43
2023/04/01 03:07:21;;;;;;;6.63;1.67;;;;;;;;;;6157317;23;20013;-43
2023/04/01 03:09:48;;;;;;;7.53;1.80;;;;;;;;;;6153424;23;20019;-42
2023/04/01 03:12:16;;;;;;;5.63;1.70;;;;;;;;;;6161893;23;20127;-41
2023/04/01 03:14:44;;;;;;;6.03;1.38;;;;;;;;;;6150801;23;20055;-43
2023/04/01 03:17:13;;;;;;;5.43;1.23;;;;;;;;;;6162843;23;20021;-42
2023/04/01 03:19:41;;;;;;;7.18;1.40;;;;;;;;;;6158880;23;20495;-41
2023/04/01 03:22:09;;;;;;;7.77;1.70;;;;;;;;;;6152814;23;20052;-42
2023/04/01 03:24:38;;;;;;;6.22;1.50;;;;;;;;;;6157382;23;20024;-42
2023/04/01 03:27:05;;;;;;;4.93;1.38;;;;;;;;;;6151679;23;20084;-41
2023/04/01 03:29:34;;;;;;;5.13;0.90;;;;;;;;;;6156774;23;20017;-43
2023/04/01 03:32:01;;;;;;;5.00;0.98;;;;;;;;;;6140081;23;20013;-43
2023/04/01 03:34:30;;;;;;;3.93;1.00;;;;;;;;;;6126891;23;20538;-42
2023/04/01 03:36:58;;;;;;;4.18;0.80;;;;;;;;;;6163372;23;20059;-42
2023/04/01 03:39:26;;;;;;;4.30;1.02;;;;;;;;;;6139222;23;20412;-43
2023/04/01 03:41:53;;;;;;;4.97;1.13;;;;;;;;;;6158926;23;20096;-46
2023/04/01 03:44:21;;;;;;;5.75;1.10;;;;;;;;;;6155785;23;20020;-41
2023/04/01 03:46:49;;;;;;;4.83;1.07;;;;;;;;;;6154753;23;20138;-41
2023/04/01 03:49:16;;;;;;;4.65;1.02;;;;;;;;;;6158623;23;20100;-42
2023/04/01 03:51:45;;;;;;;5.75;1.50;;;;;;;;;;6154181;23;20175;-41
2023/04/01 03:54:13;;;;;;;6.82;0.80;;;;;;;;;;6149511;23;20460;-43
2023/04/01 03:56:42;;;;;;;3.95;0.80;;;;;;;;;;6164020;23;20421;-42
2023/04/01 03:59:09;;;;;;;5.40;1.37;;;;;;;;;;6133341;23;20517;-41
2023/04/01 04:01:37;;;;;;;3.88;1.00;;;;;;;;;;6154352;23;20523;-41
2023/04/01 04:04:05;;;;;;;4.57;0.82;;;;;;;;;;6126739;23;20055;-42
2023/04/01 04:06:33;;;;;;;3.20;0.60;;;;;;;;;;6160656;23;20092;-42
2023/04/01 04:09:03;;;;;;;4.60;0.50;;;;;;;;;;6150622;23;20203;-42
2023/04/01 04:11:31;;;;;;;2.83;0.40;;;;;;;;;;6158959;23;20100;-42
2023/04/01 04:13:59;;;;;;;2.08;0.32;;;;;;;;;;6161942;23;20046;-42
2023/04/01 04:16:26;;;;;;;3.70;0.45;;;;;;;;;;6157250;23;20124;-42
2023/04/01 04:18:54;;;;;;;2.75;0.40;;;;;;;;;;6163307;23;20048;-44
2023/04/01 04:21:22;;;;;;;2.83;0.60;;;;;;;;;;6158246;23;20036;-42
2023/04/01 04:23:53;;;;;;;3.80;0.53;;;;;;;;;;6155381;23;20021;-44
2023/04/01 04:26:22;;;;;;;3.03;0.40;;;;;;;;;;6159270;23;20028;-45
2023/04/01 04:28:50;;;;;;;4.85;0.70;;;;;;;;;;6161095;23;20060;-43
2023/04/01 04:31:19;;;;;;;3.22;0.50;;;;;;;;;;6157564;23;20096;-43
2023/04/01 04:33:47;;;;;;;2.95;0.52;;;;;;;;;;6161887;23;20329;-43
2023/04/01 04:36:15;;;;;;;3.70;0.63;;;;;;;;;;6156363;23;20396;-42
2023/04/01 04:38:43;;;;;;;2.80;0.50;;;;;;;;;;6159296;23;20072;-43
2023/04/01 04:41:11;;;;;;;4.45;0.90;;;;;;;;;;6155905;23;20096;-42
2023/04/01 04:43:40;;;;;;;4.07;0.80;;;;;;;;;;6160769;23;20017;-42
2023/04/01 04:46:08;;;;;;;3.47;0.73;;;;;;;;;;6157746;23;20025;-42
2023/04/01 04:48:36;;;;;;;4.33;0.73;;;;;;;;;;6159970;23;20013;-42
2023/04/01 04:51:04;;;;;;;4.00;0.73;;;;;;;;;;6163317;23;20028;-44
2023/04/01 04:53:32;;;;;;;4.22;0.77;;;;;;;;;;6164044;23;20029;-41
2023/04/01 04:56:00;;;;;;;3.72;0.70;;;;;;;;;;6154278;23;20021;-42
2023/04/01 04:58:27;;;;;;;5.30;0.70;;;;;;;;;;6162344;23;20016;-43
2023/04/01 05:00:56;;;;;;;4.57;1.10;;;;;;;;;;6154172;23;20017;-41
2023/04/01 05:03:25;;;;;;;4.35;0.88;;;;;;;;;;6134786;23;20064;-43
2023/04/01 05:05:54;;;;;;;4.47;1.08;;;;;;;;;;6134924;23;20465;-44
2023/04/01 05:08:22;;;;;;;4.22;0.85;;;;;;;;;;6152270;23;20013;-47
2023/04/01 05:10:50;;;;;;;4.55;1.10;;;;;;;;;;6161286;23;20017;-42
2023/04/01 05:13:17;;;;;;;5.40;1.37;;;;;;;;;;6155348;23;20075;-41
2023/04/01 05:15:51;;;;;;;5.60;1.60;;;;;;;;;;6166689;23;20025;-43
2023/04/01 05:18:20;;;;;;;8.60;1.23;;;;;;;;;;6161326;23;20109;-41
2023/04/01 05:20:48;;;;;;;6.10;1.40;;;;;;;;;;6161595;23;20459;-42
2023/04/01 05:23:16;;;;;;;8.10;1.50;;;;;;;;;;6160096;23;20017;-43
2023/04/01 05:25:44;;;;;;;5.73;1.27;;;;;;;;;;6158757;23;20021;-41
2023/04/01 05:28:12;;;;;;;4.45;1.15;;;;;;;;;;6158548;23;20021;-42
2023/04/01 05:30:40;;;;;;;6.28;1.60;;;;;;;;;;6156046;23;20013;-41
2023/04/01 05:33:08;;;;;;;5.25;1.20;;;;;;;;;;6156345;23;20013;-43
2023/04/01 05:35:38;;;;;;;5.68;1.60;;;;;;;;;;6157297;23;20466;-42
2023/04/01 05:38:05;;;;;;;4.87;0.97;;;;;;;;;;6158800;23;20021;-42
2023/04/01 05:40:34;;;;;;;6.65;1.70;;;;;;;;;;6159422;23;20071;-43
2023/04/01 05:43:02;;;;;;;6.68;1.80;;;;;;;;;;6160648;23;20009;-41
2023/04/01 05:45:29;;;;;;;6.13;1.42;;;;;;;;;;6156171;23;20063;-42
2023/04/01 05:47:58;;;;;;;6.35;1.98;;;;;;;;;;6159420;23;20464;-41
2023/04/01 05:50:25;;;;;;;5.87;1.50;;;;;;;;;;6155077;23;20040;-42
2023/04/01 05:52:54;;;;;;;6.25;1.80;;;;;;;;;;6136215;23;20071;-41
2023/04/01 05:55:22;;;;;;;7.78;2.05;;;;;;;;;;6159765;23;20013;-41
2023/04/01 05:57:50;;;;;;;6.35;1.92;;;;;;;;;;6157374;23;20100;-41
2023/04/01 06:00:19;;;;;;;6.95;1.75;;;;;;;;;;6160112;23;20036;-41
2023/04/01 06:02:47;;;;;;;8.00;2.23;;;;;;;;;;6159846;23;20027;-41
2023/04/01 06:05:17;;;;;;;6.35;1.98;;;;;;;;;;6148741;23;20103;-42
2023/04/01 06:07:45;;;;;;;6.97;1.92;;;;;;;;;;6161202;23;20059;-41
2023/04/01 06:10:15;;;;;;;7.35;1.88;;;;;;;;;;6155536;23;20048;-41
2023/04/01 06:12:50;;;;;;;7.93;2.33;;;;;;;;;;6160072;23;20084;-41
2023/04/01 06:15:24;;;;;;;8.33;2.23;;;;;;;;;;6164094;23;20020;-41
2023/04/01 06:17:56;;;;;;;7.38;2.00;;;;;;;;;;6128606;23;20013;-41
2023/04/01 06:20:26;;;;;;;8.95;2.72;;;;;;;;;;6162229;23;20021;-41
2023/04/01 06:23:06;;;;;;;8.95;2.65;;;;;;;;;;6158290;23;20063;-42
2023/04/01 06:25:44;;;;;;;11.73;3.20;;;;;;;;;;6153595;23;20021;-41
2023/04/01 06:28:35;;;;;;;14.37;4.23;;;;;;;;;;6161641;23;20052;-41
2023/04/01 06:31:05;;;;;;;15.05;4.85;;;;;;;;;;6152015;23;20040;-40
2023/04/01 06:33:42;;;;;;;17.60;5.57;;;;;;;;;;6155031;23;20017;-41
2023/04/01 06:36:19;;;;;;;20.23;6.10;;;;;;;;;;6164194;23;20024;-41
2023/04/01 06:38:53;;;;;;;19.38;6.45;;;;;;;;;;6156340;23;20017;-43
2023/04/01 06:41:42;;;;;;;20.77;6.37;;;;;;;;;;6161231;23;20471;-42
2023/04/01 06:44:15;;;;;;;16.40;5.30;;;;;;;;;;6156473;23;20024;-41
2023/04/01 06:46:46;;;;;;;14.77;4.55;;;;;;;;;;6159539;23;20075;-41
2023/04/01 06:49:33;;;;;;;14.27;3.70;;;;;;;;;;6164791;23;20017;-41
2023/04/01 06:52:03;;;;;;;15.05;3.95;;;;;;;;;;6165488;23;20048;-41
2023/04/01 06:54:32;;;;;;;12.73;3.87;;;;;;;;;;6155876;23;20028;-42
2023/04/01 06:57:03;;;;;;;13.55;4.30;;;;;;;;;;6136856;23;20104;-41
2023/04/01 06:59:33;;;;;;;17.30;5.57;;;;;;;;;;6157365;23;20021;-42
2023/04/01 07:02:03;;;;;;;18.88;5.25;;;;;;;;;;6155999;23;20431;-41
2023/04/01 07:04:32;;;;;;;16.73;4.95;;;;;;;;;;6162799;23;20103;-41
2023/04/01 07:07:02;;;;;;;17.47;4.93;;;;;;;;;;6155337;23;20497;-41
2023/04/01 07:09:32;;;;;;;21.45;6.07;;;;;;;;;;6160101;23;20021;-41
2023/04/01 07:12:03;;;;;;;18.00;5.00;;;;;;;;;;6128947;23;20040;-41
2023/04/01 07:14:33;;;;;;;19.85;5.07;;;;;;;;;;6157957;23;20021;-42
2023/04/01 07:17:03;;;;;;;22.02;5.97;;;;;;;;;;6160340;23;20045;-44
2023/04/01 07:19:32;;;;;;;16.77;6.23;;;;;;;;;;6151986;23;20021;-42
2023/04/01 07:22:02;;;;;;;16.85;5.03;;;;;;;;;;6160031;23;20096;-41
2023/04/01 07:24:33;;;;;;;20.88;5.70;;;;;;;;;;6149591;23;20013;-42
2023/04/01 07:27:02;;;;;;;17.10;4.45;;;;;;;;;;6159669;23;20021;-41
2023/04/01 07:29:30;;;;;;;19.75;4.90;;;;;;;;;;6154236;23;20539;-41
2023/04/01 07:32:08;;;;;;;18.20;4.50;;;;;;;;;;6159028;23;20012;-41
2023/04/01 07:34:39;;;;;;;18.92;4.75;;;;;;;;;;6160832;23;20119;-41
2023/04/01 07:37:11;;;;;;;17.38;4.88;;;;;;;;;;6154037;23;20100;-41
2023/04/01 07:39:44;;;;;;;17.35;4.95;;;;;;;;;;6160495;23;20036;-40
2023/04/01 07:42:16;;;;;;;21.17;5.97;;;;;;;;;;6157263;23;20012;-41
2023/04/01 07:44:50;;;;;;;21.17;5.20;;;;;;;;;;6163475;23;20017;-42
2023/04/01 07:47:25;;;;;;;16.48;4.57;;;;;;;;;;6162325;23;20064;-41
2023/04/01 07:50:00;;;;;;;17.92;5.07;;;;;;;;;;6153929;23;20069;-43
2023/04/01 07:52:32;;;;;;;19.05;4.40;;;;;;;;;;6127288;23;20025;-43
2023/04/01 07:55:02;;;;;;;23.63;5.55;;;;;;;;;;6158307;23;20385;-41
2023/04/01 07:57:35;;;;;;;21.43;5.57;;;;;;;;;;6151432;23;20092;-41
2023/04/01 08:00:07;;;;;;;22.17;5.43;;;;;;;;;;6153881;23;20037;-42
2023/04/01 08:02:44;;;;;;;25.55;5.22;;;;;;;;;;6155112;23;20315;-41
2023/04/01 08:05:19;;;;;;;23.65;5.60;;;;;;;;;;6151696;23;20021;-42
2023/04/01 08:07:51;;;;;;;22.13;4.95;;;;;;;;;;6131895;23;20419;-42
2023/04/01 08:10:21;;;;;;;17.53;5.23;;;;;;;;;;6144684;23;20033;-44
2023/04/01 08:12:57;;;;;;;20.15;5.45;;;;;;;;;;6158637;23;20021;-43
2023/04/01 08:15:27;;;;;;;21.75;5.30;;;;;;;;;;6151058;23;20048;-41
2023/04/01 08:18:01;;;;;;;18.92;5.07;;;;;;;;;;6147943;23;20075;-42
2023/04/01 08:20:34;;;;;;;25.73;6.10;;;;;;;;;;6153428;23;20017;-41
2023/04/01 08:23:05;;;;;;;24.17;5.93;;;;;;;;;;6157524;23;20075;-41
2023/04/01 08:25:34;;;;;;;24.77;5.60;;;;;;;;;;6157375;23;20530;-42
2023/04/01 08:28:11;;;;;;;20.35;5.68;;;;;;;;;;6146689;23;20593;-41
2023/04/01 08:30:42;;;;;;;19.77;5.20;;;;;;;;;;6155505;23;20538;-41
2023/04/01 08:33:15;;;;;;;18.00;5.43;;;;;;;;;;6148683;23;20017;-42
2023/04/01 08:35:47;;;;;;;22.20;5.20;;;;;;;;;;6131828;23;20482;-41
2023/04/01 08:38:18;;;;;;;23.92;5.65;;;;;;;;;;6152561;23;20017;-41
2023/04/01 08:40:58;;;;;;;21.48;5.03;;;;;;;;;;6158801;23;20491;-42
2023/04/01 08:43:42;;;;;;;23.65;6.03;;;;;;;;;;6151794;23;20063;-43
2023/04/01 08:46:18;;;;;;;21.60;5.53;;;;;;;;;;6144953;23;20052;-41
2023/04/01 08:48:53;;;;;;;22.40;4.87;;;;;;;;;;6158661;23;20071;-41
2023/04/01 08:51:34;;;;;;;21.65;5.35;;;;;;;;;;6151350;23;20017;-41
2023/04/01 08:54:09;;;;;;;21.00;5.40;;;;;;;;;;6157721;23;20017;-42
2023/04/01 08:56:40;;;;;;;17.70;4.85;;;;;;;;;;6155375;23;20048;-42
2023/04/01 08:59:27;;;;;;;18.52;4.45;;;;;;;;;;6156105;23;20017;-41
2023/04/01 09:02:15;;;;;;;15.90;4.63;;;;;;;;;;6159009;23;20447;-41
2023/04/01 09:04:59;;;;;;;16.50;3.80;;;;;;;;;;6146569;23;20025;-42
2023/04/01 09:07:33;;;;;;;19.75;4.50;;;;;;;;;;6154917;23;20067;-41
2023/04/01 09:10:24;;;;;;;13.18;4.30;;;;;;;;;;6130997;23;20017;-41
2023/04/01 09:12:57;;;;;;;17.67;4.50;;;;;;;;;;6154482;23;20511;-41
2023/04/01 09:15:54;;;;;;;14.63;4.17;;;;;;;;;;6156960;23;20053;-43
2023/04/01 09:18:30;;;;;;;19.95;4.72;;;;;;;;;;6156464;23;20021;-41
2023/04/01 09:21:02;;;;;;;14.98;4.88;;;;;;;;;;6152548;23;20175;-42
2023/04/01 09:23:37;;;;;;;15.68;4.22;;;;;;;;;;6155988;23;20024;-44
2023/04/01 09:26:12;;;;;;;12.73;3.78;;;;;;;;;;6149504;23;20013;-42
2023/04/01 09:28:45;;;;;;;17.37;4.27;;;;;;;;;;6159665;23;20521;-41
2023/04/01 09:31:26;;;;;;;13.35;3.90;;;;;;;;;;6156885;23;20021;-41
2023/04/01 09:34:14;;;;;;;15.50;3.72;;;;;;;;;;6138361;23;20025;-42
2023/04/01 09:36:46;;;;;;;15.73;4.03;;;;;;;;;;6156899;23;20013;-41
2023/04/01 09:39:32;;;;;;;13.75;4.38;;;;;;;;;;6159290;23;20456;-43
2023/04/01 09:42:23;;;;;;;17.87;4.70;;;;;;;;;;6157198;23;20017;-41
2023/04/01 09:44:56;;;;;;;14.63;4.60;;;;;;;;;;6151816;23;20040;-42
2023/04/01 09:47:30;;;;;;;15.75;4.95;;;;;;;;;;6156283;23;20092;-42
2023/04/01 09:50:07;;;;;;;14.70;3.60;;;;;;;;;;6153903;23;20113;-42
2023/04/01 09:52:37;;;;;;;15.30;3.90;;;;;;;;;;6155992;23;20809;-43
2023/04/01 09:55:15;;;;;;;17.93;5.13;;;;;;;;;;6154396;23;20123;-42
2023/04/01 09:58:10;;;;;;;15.60;4.38;;;;;;;;;;6156397;23;20053;-41
2023/04/01 10:00:47;;;;;;;17.80;4.95;;;;;;;;;;6088004;23;20021;-41
2023/04/01 10:03:29;;;;;;;15.10;4.88;;;;;;;;;;6157183;23;20013;-42
2023/04/01 10:06:13;;;;;;;16.00;4.85;;;;;;;;;;6156342;23;20117;-42
2023/04/01 10:09:00;;;;;;;17.53;5.30;;;;;;;;;;6153688;23;20096;-41
2023/04/01 10:11:51;;;;;;;18.45;5.55;;;;;;;;;;6154885;23;20119;-43
2023/04/01 10:14:37;;;;;;;20.92;5.50;;;;;;;;;;6045730;23;20023;-42
2023/04/01 10:17:23;;;;;;;21.65;5.95;;;;;;;;;;6156438;23;20075;-41
2023/04/01 10:20:09;;;;;;;17.45;4.82;;;;;;;;;;6160815;23;20021;-43
2023/04/01 10:22:47;;;;;;;20.87;4.73;;;;;;;;;;6126033;23;20025;-41
2023/04/01 10:25:23;;;;;;;19.00;5.32;;;;;;;;;;6161259;23;20016;-41
2023/04/01 10:27:58;;;;;;;18.83;5.03;;;;;;;;;;6156995;23;20013;-42
2023/04/01 10:30:36;;;;;;;15.75;4.85;;;;;;;;;;6151845;23;20028;-41
2023/04/01 10:33:26;;;;;;;15.00;4.35;;;;;;;;;;6161568;23;20052;-41
2023/04/01 10:36:13;;;;;;;19.70;4.93;;;;;;;;;;6154393;23;20024;-41
2023/04/01 10:39:00;;;;;;;13.68;4.50;;;;;;;;;;6151520;23;20365;-41
2023/04/01 10:41:43;;;;;;;14.93;3.28;;;;;;;;;;6130848;23;20010;-42
2023/04/01 10:44:33;;;;;;;11.85;3.85;;;;;;;;;;6093284;23;20059;-41
2023/04/01 10:47:17;;;;;;;11.38;3.83;;;;;;;;;;6153613;23;20040;-41
2023/04/01 10:49:48;;;;;;;15.97;3.27;;;;;;;;;;6130492;23;20027;-44
2023/04/01 10:52:37;;;;;;;13.73;3.78;;;;;;;;;;6159562;23;20084;-45
2023/04/01 10:55:15;;;;;;;10.63;3.40;;;;;;;;;;6159547;23;20448;-41
2023/04/01 10:58:02;;;;;;;10.80;3.42;;;;;;;;;;6128777;23;20349;-43
2023/04/01 11:00:49;;;;;;;13.98;2.97;;;;;;;;;;6155176;23;20063;-42
2023/04/01 11:03:46;;;;;;;12.83;3.87;;;;;;;;;;6157605;23;20013;-42
2023/04/01 11:06:33;;;;;;;13.07;3.67;;;;;;;;;;6163186;23;20017;-41
2023/04/01 11:09:35;;;;;;;12.75;3.80;;;;;;;;;;6131712;23;20021;-41
2023/04/01 11:12:20;;;;;;;11.45;3.22;;;;;;;;;;6131651;23;20080;-42
2023/04/01 11:15:05;;;;;;;13.68;4.25;;;;;;;;;;6163421;23;20013;-41
2023/04/01 11:17:53;;;;;;;12.33;3.97;;;;;;;;;;6153085;23;20672;-42
2023/04/01 11:20:46;;;;;;;13.10;4.07;;;;;;;;;;6153062;23;20072;-41
2023/04/01 11:23:29;;;;;;;12.50;3.63;;;;;;;;;;6156341;23;20037;-43
2023/04/01 11:26:00;;;;;;;12.95;3.78;;;;;;;;;;6123201;23;20124;-41
2023/04/01 11:28:48;;;;;;;12.13;4.40;;;;;;;;;;6157952;23;20039;-42
2023/04/01 11:31:22;;;;;;;17.00;4.17;;;;;;;;;;6138283;23;20067;-41
2023/04/01 11:33:55;;;;;;;14.98;4.25;;;;;;;;;;6145390;23;20119;-42
2023/04/01 11:36:28;;;;;;;14.40;4.07;;;;;;;;;;6160717;23;20020;-42
2023/04/01 11:39:11;;;;;;;11.80;4.65;;;;;;;;;;6158679;23;20044;-41
2023/04/01 11:41:42;;;;;;;14.05;4.82;;;;;;;;;;6153150;23;20016;-42
2023/04/01 11:44:17;;;;;;;15.77;4.23;;;;;;;;;;6157762;23;20040;-42
2023/04/01 11:46:53;;;;;;;14.68;4.40;;;;;;;;;;6155492;23;20017;-41
2023/04/01 11:49:34;;;;;;;16.75;5.28;;;;;;;;;;6150146;23;20027;-42
2023/04/01 11:52:10;;;;;;;17.23;4.97;;;;;;;;;;6160034;23;20092;-42
2023/04/01 11:54:44;;;;;;;17.98;5.28;;;;;;;;;;6152686;23;20450;-41
2023/04/01 11:57:19;;;;;;;15.53;5.53;;;;;;;;;;6159138;23;20472;-41
2023/04/01 12:00:08;;;;;;;16.48;5.47;;;;;;;;;;6148789;23;20387;-43
2023/04/01 12:02:43;;;;;;;16.52;4.68;;;;;;;;;;6139563;23;20044;-41
2023/04/01 12:05:24;;;;;;;13.82;4.80;;;;;;;;;;6152150;23;20035;-41
2023/04/01 12:07:56;;;;;;;15.40;5.28;;;;;;;;;;6160080;23;20059;-42
2023/04/01 12:10:28;;;;;;;13.73;5.20;;;;;;;;;;6147753;23;20052;-41
2023/04/01 12:13:00;;;;;;;12.85;4.32;;;;;;;;;;6158168;23;20048;-41
2023/04/01 12:15:31;;;;;;;13.35;4.50;;;;;;;;;;6153745;23;20355;-41
2023/04/01 12:18:03;;;;;;;16.30;5.50;;;;;;;;;;6150181;23;20429;-44
2023/04/01 12:20:38;;;;;;;17.52;5.57;;;;;;;;;;6155306;23;20024;-41
2023/04/01 12:23:11;;;;;;;13.93;5.20;;;;;;;;;;6153001;23;20020;-42
2023/04/01 12:25:49;;;;;;;15.68;5.43;;;;;;;;;;6150813;23;20113;-42
2023/04/01 12:28:22;;;;;;;13.00;4.97;;;;;;;;;;6153091;23;20036;-41
2023/04/01 12:31:29;;;;;;;15.07;4.95;;;;;;;;;;6127249;23;20122;-43
2023/04/01 12:34:09;;;;;;;13.75;4.38;;;;;;;;;;6130154;23;20642;-43
2023/04/01 12:36:49;;;;;;;12.00;3.53;;;;;;;;;;6122750;23;20021;-42
2023/04/01 12:39:33;;;;;;;15.88;4.45;;;;;;;;;;6158548;23;20024;-41
2023/04/01 12:42:06;;;;;;;15.82;4.97;;;;;;;;;;6156532;23;20056;-42
2023/04/01 12:44:38;;;;;;;12.93;4.78;;;;;;;;;;6153300;23;20025;-42
2023/04/01 12:47:15;;;;;;;16.60;4.57;;;;;;;;;;6160196;23;20033;-41
2023/04/01 12:49:57;;;;;;;15.83;5.23;;;;;;;;;;6121162;23;20025;-44
2023/04/01 12:52:31;;;;;;;14.77;5.30;;;;;;;;;;6155248;23;20045;-42
2023/04/01 12:55:09;;;;;;;15.10;4.90;;;;;;;;;;6159830;23;20412;-42
2023/04/01 12:57:55;;;;;;;11.95;4.45;;;;;;;;;;6160112;23;20518;-45
2023/04/01 13:00:31;;;;;;;11.85;4.50;;;;;;;;;;6150744;23;20079;-41
2023/04/01 13:03:06;;;;;;;11.10;4.10;;;;;;;;;;6156190;23;20407;-44
2023/04/01 13:05:43;;;;;;;12.73;4.20;;;;;;;;;;6158106;23;20099;-45
2023/04/01 13:08:18;;;;;;;11.50;3.75;;;;;;;;;;6152513;23;20660;-44
2023/04/01 13:10:55;;;;;;;12.13;3.83;;;;;;;;;;6156748;23;20048;-43
2023/04/01 13:13:33;;;;;;;15.00;4.20;;;;;;;;;;6150011;23;20079;-41
2023/04/01 13:16:04;;;;;;;11.43;3.43;;;;;;;;;;6127659;23;20100;-42
2023/04/01 13:18:40;;;;;;;11.48;3.63;;;;;;;;;;6130848;23;20021;-41
2023/04/01 13:21:13;;;;;;;10.48;3.55;;;;;;;;;;6156328;23;20055;-41
2023/04/01 13:23:46;;;;;;;11.55;3.92;;;;;;;;;;6153682;23;20075;-43
2023/04/01 13:26:17;;;;;;;10.98;3.45;;;;;;;;;;6156558;23;20455;-43
2023/04/01 13:28:48;;;;;;;8.37;3.23;;;;;;;;;;6154155;23;20017;-42
2023/04/01 13:31:25;;;;;;;10.52;3.15;;;;;;;;;;6130338;23;20021;-42
2023/04/01 13:34:01;;;;;;;7.07;2.35;;;;;;;;;;6125892;23;20017;-42
2023/04/01 13:36:35;;;;;;;6.70;2.10;;;;;;;;;;6152397;23;20067;-43
2023/04/01 13:39:23;;;;;;;6.75;2.00;;;;;;;;;;6154135;23;20470;-41
2023/04/01 13:42:00;;;;;;;7.40;2.70;;;;;;;;;;6147287;23;20128;-41
2023/04/01 13:44:31;;;;;;;5.93;2.15;;;;;;;;;;6126449;23;20110;-41
2023/04/01 13:47:06;;;;;;;5.82;2.03;;;;;;;;;;6149145;23;20538;-41
2023/04/01 13:49:48;;;;;;;6.63;1.90;;;;;;;;;;6153892;23;20017;-41
2023/04/01 13:52:34;;;;;;;5.80;1.60;;;;;;;;;;6152945;23;20049;-45
2023/04/01 13:55:22;;;;;;;5.77;1.43;;;;;;;;;;6156673;23;20017;-41
2023/04/01 13:57:55;;;;;;;5.78;1.65;;;;;;;;;;6147021;23;20430;-43
2023/04/01 14:00:33;;;;;;;6.35;1.75;;;;;;;;;;6155145;23;20048;-43
2023/04/01 14:03:13;;;;;;;5.75;1.90;;;;;;;;;;6127320;23;20044;-42
2023/04/01 14:05:48;;;;;;;5.18;1.80;;;;;;;;;;6153480;23;20012;-41
2023/04/01 14:08:24;;;;;;;5.13;1.50;;;;;;;;;;6145733;23;20013;-41
2023/04/01 14:10:59;;;;;;;5.10;1.33;;;;;;;;;;6146121;23;20017;-41
2023/04/01 14:13:31;;;;;;;6.05;1.40;;;;;;;;;;6144513;23;20592;-41
2023/04/01 14:16:24;;;;;;;4.65;1.20;;;;;;;;;;6150791;23;20013;-42
2023/04/01 14:19:00;;;;;;;3.92;1.20;;;;;;;;;;6150665;23;20428;-42
2023/04/01 14:21:32;;;;;;;4.50;1.33;;;;;;;;;;6100228;23;20095;-41
2023/04/01 14:24:21;;;;;;;7.00;1.08;;;;;;;;;;6118902;23;20024;-42
2023/04/01 14:27:03;;;;;;;3.95;0.73;;;;;;;;;;6125515;23;20021;-43
2023/04/01 14:29:33;;;;;;;5.22;1.42;;;;;;;;;;6142875;23;20075;-42
2023/04/01 14:32:07;;;;;;;4.28;1.30;;;;;;;;;;6147565;23;20021;-41
2023/04/01 14:34:43;;;;;;;3.87;0.87;;;;;;;;;;6153869;23;20068;-41
2023/04/01 14:37:16;;;;;;;3.38;0.90;;;;;;;;;;6146944;23;20059;-42
2023/04/01 14:39:59;;;;;;;4.57;0.80;;;;;;;;;;6152268;23;20013;-41
2023/04/01 14:42:47;;;;;;;4.80;1.02;;;;;;;;;;6149991;23;20033;-41
2023/04/01 14:45:32;;;;;;;4.13;1.05;;;;;;;;;;6135705;23;20040;-41
2023/04/01 14:48:07;;;;;;;3.97;0.70;;;;;;;;;;6152941;23;20032;-42
2023/04/01 14:50:42;;;;;;;5.63;1.40;;;;;;;;;;6149916;23;20548;-41
2023/04/01 14:53:12;;;;;;;7.35;1.40;;;;;;;;;;6147919;23;20045;-42
2023/04/01 14:55:49;;;;;;;4.95;1.33;;;;;;;;;;6148907;23;20063;-42
2023/04/01 14:58:18;;;;;;;5.43;1.55;;;;;;;;;;6149529;23;20405;-42
2023/04/01 15:00:51;;;;;;;4.70;1.60;;;;;;;;;;6123692;23;20555;-42
2023/04/01 15:03:21;;;;;;;5.53;1.67;;;;;;;;;;6118644;23;20108;-41
2023/04/01 15:05:50;;;;;;;5.35;1.40;;;;;;;;;;6146380;23;20017;-42
2023/04/01 15:08:21;;;;;;;5.03;1.33;;;;;;;;;;6149317;23;20053;-41
2023/04/01 15:11:04;;;;;;;5.38;1.25;;;;;;;;;;6153476;23;20016;-43
2023/04/01 15:13:50;;;;;;;5.67;1.37;;;;;;;;;;6144029;23;20092;-43
2023/04/01 15:16:26;;;;;;;4.95;1.10;;;;;;;;;;6125324;23;20083;-43